sensor_id;sensor_type;location;lat;lon;timestamp;temperature;humidity
72288;SHT31;60221;45.696;16.076;2022-11-15T00:02:28;10.26;78.09
72288;SHT31;60221;45.696;16.076;2022-11-15T00:05:13;10.25;78.03
72288;SHT31;60221;45.696;16.076;2022-11-15T00:07:57;10.26;78.09
72288;SHT31;60221;45.696;16.076;2022-11-15T00:10:42;10.28;77.99
72288;SHT31;60221;45.696;16.076;2022-11-15T00:13:28;10.23;77.92
72288;SHT31;60221;45.696;16.076;2022-11-15T00:16:13;10.21;77.98
72288;SHT31;60221;45.696;16.076;2022-11-15T00:18:57;10.22;77.88
72288;SHT31;60221;45.696;16.076;2022-11-15T00:21:42;10.22;77.84
72288;SHT31;60221;45.696;16.076;2022-11-15T00:24:26;10.18;77.69
72288;SHT31;60221;45.696;16.076;2022-11-15T00:27:11;10.15;77.75
72288;SHT31;60221;45.696;16.076;2022-11-15T00:29:56;10.11;77.81
72288;SHT31;60221;45.696;16.076;2022-11-15T00:32:40;10.12;77.94
72288;SHT31;60221;45.696;16.076;2022-11-15T00:35:25;10.11;78.00
72288;SHT31;60221;45.696;16.076;2022-11-15T00:38:09;10.09;78.01
72288;SHT31;60221;45.696;16.076;2022-11-15T00:40:54;10.08;78.05
72288;SHT31;60221;45.696;16.076;2022-11-15T00:43:39;10.15;78.81
72288;SHT31;60221;45.696;16.076;2022-11-15T00:46:25;10.38;79.59
72288;SHT31;60221;45.696;16.076;2022-11-15T00:49:10;10.55;79.53
72288;SHT31;60221;45.696;16.076;2022-11-15T00:51:54;10.71;79.51
72288;SHT31;60221;45.696;16.076;2022-11-15T00:54:39;10.73;78.75
72288;SHT31;60221;45.696;16.076;2022-11-15T00:57:23;10.62;77.65
72288;SHT31;60221;45.696;16.076;2022-11-15T01:00:10;10.46;77.21
72288;SHT31;60221;45.696;16.076;2022-11-15T01:02:55;10.36;77.18
72288;SHT31;60221;45.696;16.076;2022-11-15T01:05:40;10.32;77.32
72288;SHT31;60221;45.696;16.076;2022-11-15T01:08:25;10.28;77.39
72288;SHT31;60221;45.696;16.076;2022-11-15T01:11:12;10.33;77.99
72288;SHT31;60221;45.696;16.076;2022-11-15T01:13:57;10.52;78.52
72288;SHT31;60221;45.696;16.076;2022-11-15T01:16:41;10.60;78.16
72288;SHT31;60221;45.696;16.076;2022-11-15T01:19:26;10.48;77.33
72288;SHT31;60221;45.696;16.076;2022-11-15T01:22:11;10.42;77.05
72288;SHT31;60221;45.696;16.076;2022-11-15T01:24:55;10.36;77.17
72288;SHT31;60221;45.696;16.076;2022-11-15T01:27:40;10.42;77.52
72288;SHT31;60221;45.696;16.076;2022-11-15T01:30:25;10.49;77.65
72288;SHT31;60221;45.696;16.076;2022-11-15T01:33:09;10.50;77.44
72288;SHT31;60221;45.696;16.076;2022-11-15T01:35:55;10.62;77.75
72288;SHT31;60221;45.696;16.076;2022-11-15T01:38:40;10.62;77.01
72288;SHT31;60221;45.696;16.076;2022-11-15T01:41:29;10.55;76.62
72288;SHT31;60221;45.696;16.076;2022-11-15T01:44:47;10.41;76.28
72288;SHT31;60221;45.696;16.076;2022-11-15T01:47:39;10.31;76.15
72288;SHT31;60221;45.696;16.076;2022-11-15T01:50:31;10.23;76.35
72288;SHT31;60221;45.696;16.076;2022-11-15T01:53:20;10.14;76.76
72288;SHT31;60221;45.696;16.076;2022-11-15T01:56:11;10.11;77.11
72288;SHT31;60221;45.696;16.076;2022-11-15T01:58:58;10.04;77.23
72288;SHT31;60221;45.696;16.076;2022-11-15T02:01:44;10.36;80.16
72288;SHT31;60221;45.696;16.076;2022-11-15T02:04:43;10.87;80.55
72288;SHT31;60221;45.696;16.076;2022-11-15T02:07:25;11.03;79.66
72288;SHT31;60221;45.696;16.076;2022-11-15T02:10:17;11.11;78.87
72288;SHT31;60221;45.696;16.076;2022-11-15T02:13:02;11.22;78.37
72288;SHT31;60221;45.696;16.076;2022-11-15T02:29:08;11.58;76.15
72288;SHT31;60221;45.696;16.076;2022-11-15T02:32:12;11.62;75.60
72288;SHT31;60221;45.696;16.076;2022-11-15T02:35:12;11.43;74.52
72288;SHT31;60221;45.696;16.076;2022-11-15T02:41:09;11.32;74.38
72288;SHT31;60221;45.696;16.076;2022-11-15T02:44:12;11.10;73.62
72288;SHT31;60221;45.696;16.076;2022-11-15T02:50:07;13.38;77.96
72288;SHT31;60221;45.696;16.076;2022-11-15T02:52:51;13.59;72.65
72288;SHT31;60221;45.696;16.076;2022-11-15T02:55:47;13.61;70.12
72288;SHT31;60221;45.696;16.076;2022-11-15T02:59:13;13.48;69.56
72288;SHT31;60221;45.696;16.076;2022-11-15T03:05:37;13.31;68.39
72288;SHT31;60221;45.696;16.076;2022-11-15T03:11:55;13.51;67.61
72288;SHT31;60221;45.696;16.076;2022-11-15T03:15:01;13.44;67.21
72288;SHT31;60221;45.696;16.076;2022-11-15T03:17:49;13.35;67.74
72288;SHT31;60221;45.696;16.076;2022-11-15T03:20:35;13.30;67.88
72288;SHT31;60221;45.696;16.076;2022-11-15T03:23:21;13.30;67.93
72288;SHT31;60221;45.696;16.076;2022-11-15T03:26:11;13.31;68.01
72288;SHT31;60221;45.696;16.076;2022-11-15T03:29:04;13.28;67.92
72288;SHT31;60221;45.696;16.076;2022-11-15T03:32:07;13.33;67.81
72288;SHT31;60221;45.696;16.076;2022-11-15T03:35:11;13.34;67.36
72288;SHT31;60221;45.696;16.076;2022-11-15T03:41:13;13.57;68.04
72288;SHT31;60221;45.696;16.076;2022-11-15T03:44:14;13.55;66.90
72288;SHT31;60221;45.696;16.076;2022-11-15T03:47:31;13.52;67.01
72288;SHT31;60221;45.696;16.076;2022-11-15T03:50:21;13.55;67.03
72288;SHT31;60221;45.696;16.076;2022-11-15T03:53:06;13.54;66.68
72288;SHT31;60221;45.696;16.076;2022-11-15T03:55:52;13.51;66.41
72288;SHT31;60221;45.696;16.076;2022-11-15T03:58:36;13.40;66.42
72288;SHT31;60221;45.696;16.076;2022-11-15T04:01:21;13.34;66.32
72288;SHT31;60221;45.696;16.076;2022-11-15T04:04:05;13.27;66.46
72288;SHT31;60221;45.696;16.076;2022-11-15T04:06:50;13.41;67.41
72288;SHT31;60221;45.696;16.076;2022-11-15T04:09:35;13.34;66.27
72288;SHT31;60221;45.696;16.076;2022-11-15T04:12:21;13.93;69.72
72288;SHT31;60221;45.696;16.076;2022-11-15T04:15:19;14.21;66.42
72288;SHT31;60221;45.696;16.076;2022-11-15T04:18:03;14.00;64.96
72288;SHT31;60221;45.696;16.076;2022-11-15T04:20:48;13.97;65.60
72288;SHT31;60221;45.696;16.076;2022-11-15T04:23:51;13.96;65.25
72288;SHT31;60221;45.696;16.076;2022-11-15T04:26:53;13.88;65.06
72288;SHT31;60221;45.696;16.076;2022-11-15T04:29:38;13.70;65.00
72288;SHT31;60221;45.696;16.076;2022-11-15T04:32:23;13.62;65.66
72288;SHT31;60221;45.696;16.076;2022-11-15T04:35:08;13.96;67.09
72288;SHT31;60221;45.696;16.076;2022-11-15T04:37:54;14.28;66.28
72288;SHT31;60221;45.696;16.076;2022-11-15T04:40:39;14.41;64.39
72288;SHT31;60221;45.696;16.076;2022-11-15T04:43:24;14.19;63.64
72288;SHT31;60221;45.696;16.076;2022-11-15T04:46:08;13.99;63.83
72288;SHT31;60221;45.696;16.076;2022-11-15T04:48:54;13.93;64.82
72288;SHT31;60221;45.696;16.076;2022-11-15T04:51:38;13.83;64.40
72288;SHT31;60221;45.696;16.076;2022-11-15T04:54:23;13.65;64.60
72288;SHT31;60221;45.696;16.076;2022-11-15T04:57:08;13.64;65.91
72288;SHT31;60221;45.696;16.076;2022-11-15T04:59:53;13.99;66.29
72288;SHT31;60221;45.696;16.076;2022-11-15T05:02:37;14.17;64.74
72288;SHT31;60221;45.696;16.076;2022-11-15T05:05:42;14.57;64.73
72288;SHT31;60221;45.696;16.076;2022-11-15T05:08:26;14.37;62.23
72288;SHT31;60221;45.696;16.076;2022-11-15T05:11:11;13.97;62.43
72288;SHT31;60221;45.696;16.076;2022-11-15T05:13:56;13.78;63.55
72288;SHT31;60221;45.696;16.076;2022-11-15T05:16:41;13.62;64.18
72288;SHT31;60221;45.696;16.076;2022-11-15T05:19:26;13.79;64.80
72288;SHT31;60221;45.696;16.076;2022-11-15T05:22:10;13.78;64.49
72288;SHT31;60221;45.696;16.076;2022-11-15T05:24:55;13.78;64.81
72288;SHT31;60221;45.696;16.076;2022-11-15T05:27:39;13.82;64.39
72288;SHT31;60221;45.696;16.076;2022-11-15T05:30:24;13.83;64.53
72288;SHT31;60221;45.696;16.076;2022-11-15T05:33:09;13.85;64.90
72288;SHT31;60221;45.696;16.076;2022-11-15T05:38:56;13.65;65.13
72288;SHT31;60221;45.696;16.076;2022-11-15T05:41:46;13.52;65.34
72288;SHT31;60221;45.696;16.076;2022-11-15T05:44:33;13.58;66.25
72288;SHT31;60221;45.696;16.076;2022-11-15T05:47:23;13.44;65.51
72288;SHT31;60221;45.696;16.076;2022-11-15T05:50:12;13.25;65.73
72288;SHT31;60221;45.696;16.076;2022-11-15T05:52:59;13.11;66.15
72288;SHT31;60221;45.696;16.076;2022-11-15T05:55:45;13.13;66.86
72288;SHT31;60221;45.696;16.076;2022-11-15T05:58:32;13.15;66.72
72288;SHT31;60221;45.696;16.076;2022-11-15T06:01:18;13.04;66.79
72288;SHT31;60221;45.696;16.076;2022-11-15T06:04:02;12.99;66.90
72288;SHT31;60221;45.696;16.076;2022-11-15T06:06:47;12.93;67.19
72288;SHT31;60221;45.696;16.076;2022-11-15T06:09:31;12.92;67.37
72288;SHT31;60221;45.696;16.076;2022-11-15T06:12:16;12.85;67.40
72288;SHT31;60221;45.696;16.076;2022-11-15T06:15:00;12.90;68.10
72288;SHT31;60221;45.696;16.076;2022-11-15T06:17:45;12.89;67.80
72288;SHT31;60221;45.696;16.076;2022-11-15T06:20:30;12.80;67.61
72288;SHT31;60221;45.696;16.076;2022-11-15T06:23:15;13.51;70.37
72288;SHT31;60221;45.696;16.076;2022-11-15T06:26:01;13.58;67.27
72288;SHT31;60221;45.696;16.076;2022-11-15T06:28:46;13.40;66.67
72288;SHT31;60221;45.696;16.076;2022-11-15T06:31:33;13.27;66.57
72288;SHT31;60221;45.696;16.076;2022-11-15T06:34:18;13.15;66.92
72288;SHT31;60221;45.696;16.076;2022-11-15T06:37:03;13.06;67.09
72288;SHT31;60221;45.696;16.076;2022-11-15T06:39:47;12.99;67.20
72288;SHT31;60221;45.696;16.076;2022-11-15T06:42:32;12.93;67.60
72288;SHT31;60221;45.696;16.076;2022-11-15T06:45:16;12.92;67.77
72288;SHT31;60221;45.696;16.076;2022-11-15T06:48:01;12.86;67.93
72288;SHT31;60221;45.696;16.076;2022-11-15T06:50:53;12.85;67.81
72288;SHT31;60221;45.696;16.076;2022-11-15T06:53:38;12.80;67.91
72288;SHT31;60221;45.696;16.076;2022-11-15T06:56:23;12.78;68.01
72288;SHT31;60221;45.696;16.076;2022-11-15T06:59:08;12.76;68.29
72288;SHT31;60221;45.696;16.076;2022-11-15T07:01:52;12.79;68.45
72288;SHT31;60221;45.696;16.076;2022-11-15T07:04:37;12.78;68.56
72288;SHT31;60221;45.696;16.076;2022-11-15T07:07:22;12.82;68.60
72288;SHT31;60221;45.696;16.076;2022-11-15T07:10:09;12.92;68.64
72288;SHT31;60221;45.696;16.076;2022-11-15T07:12:55;12.94;68.40
72288;SHT31;60221;45.696;16.076;2022-11-15T07:15:39;13.04;68.76
72288;SHT31;60221;45.696;16.076;2022-11-15T07:18:24;13.18;68.68
72288;SHT31;60221;45.696;16.076;2022-11-15T07:21:10;13.27;68.14
72288;SHT31;60221;45.696;16.076;2022-11-15T07:23:55;13.37;67.92
72288;SHT31;60221;45.696;16.076;2022-11-15T07:26:40;13.40;67.90
72288;SHT31;60221;45.696;16.076;2022-11-15T07:29:24;13.41;67.62
72288;SHT31;60221;45.696;16.076;2022-11-15T07:32:09;13.41;67.49
72288;SHT31;60221;45.696;16.076;2022-11-15T07:34:54;13.37;67.70
72288;SHT31;60221;45.696;16.076;2022-11-15T07:37:39;13.35;67.79
72288;SHT31;60221;45.696;16.076;2022-11-15T07:40:26;13.37;68.00
72288;SHT31;60221;45.696;16.076;2022-11-15T07:43:11;13.40;68.14
72288;SHT31;60221;45.696;16.076;2022-11-15T07:45:56;13.44;68.31
72288;SHT31;60221;45.696;16.076;2022-11-15T07:48:41;13.48;68.40
72288;SHT31;60221;45.696;16.076;2022-11-15T07:51:25;13.48;68.46
72288;SHT31;60221;45.696;16.076;2022-11-15T07:54:10;13.50;68.74
72288;SHT31;60221;45.696;16.076;2022-11-15T07:56:55;13.52;68.58
72288;SHT31;60221;45.696;16.076;2022-11-15T07:59:40;13.58;68.68
72288;SHT31;60221;45.696;16.076;2022-11-15T08:02:24;13.62;68.71
72288;SHT31;60221;45.696;16.076;2022-11-15T08:05:09;13.72;68.71
72288;SHT31;60221;45.696;16.076;2022-11-15T08:07:57;13.78;68.69
72288;SHT31;60221;45.696;16.076;2022-11-15T08:10:42;13.83;68.71
72288;SHT31;60221;45.696;16.076;2022-11-15T08:13:27;13.88;68.71
72288;SHT31;60221;45.696;16.076;2022-11-15T08:16:13;13.93;68.72
72288;SHT31;60221;45.696;16.076;2022-11-15T08:18:57;13.99;68.59
72288;SHT31;60221;45.696;16.076;2022-11-15T08:21:42;14.07;68.57
72288;SHT31;60221;45.696;16.076;2022-11-15T08:24:26;14.13;68.34
72288;SHT31;60221;45.696;16.076;2022-11-15T08:27:11;14.20;68.17
72288;SHT31;60221;45.696;16.076;2022-11-15T08:30:03;14.26;68.23
72288;SHT31;60221;45.696;16.076;2022-11-15T08:32:51;14.34;68.30
72288;SHT31;60221;45.696;16.076;2022-11-15T08:35:36;14.43;68.09
72288;SHT31;60221;45.696;16.076;2022-11-15T08:38:21;14.48;68.13
72288;SHT31;60221;45.696;16.076;2022-11-15T08:41:05;14.49;67.95
72288;SHT31;60221;45.696;16.076;2022-11-15T08:43:50;14.54;67.78
72288;SHT31;60221;45.696;16.076;2022-11-15T08:46:35;14.61;67.95
72288;SHT31;60221;45.696;16.076;2022-11-15T08:49:20;14.70;68.21
72288;SHT31;60221;45.696;16.076;2022-11-15T08:52:04;14.76;67.61
72288;SHT31;60221;45.696;16.076;2022-11-15T08:54:48;14.81;67.04
72288;SHT31;60221;45.696;16.076;2022-11-15T08:57:33;14.82;67.24
72288;SHT31;60221;45.696;16.076;2022-11-15T09:00:19;14.91;67.42
72288;SHT31;60221;45.696;16.076;2022-11-15T09:03:06;15.00;67.63
72288;SHT31;60221;45.696;16.076;2022-11-15T09:06:01;14.99;68.14
72288;SHT31;60221;45.696;16.076;2022-11-15T09:08:42;14.98;67.65
72288;SHT31;60221;45.696;16.076;2022-11-15T09:11:27;14.99;67.79
72288;SHT31;60221;45.696;16.076;2022-11-15T09:14:14;15.07;67.33
72288;SHT31;60221;45.696;16.076;2022-11-15T09:16:58;15.23;67.76
72288;SHT31;60221;45.696;16.076;2022-11-15T09:19:43;15.33;67.23
72288;SHT31;60221;45.696;16.076;2022-11-15T09:22:28;15.34;67.01
72288;SHT31;60221;45.696;16.076;2022-11-15T09:25:13;15.34;66.73
72288;SHT31;60221;45.696;16.076;2022-11-15T09:27:58;15.40;66.47
72288;SHT31;60221;45.696;16.076;2022-11-15T09:30:42;15.34;66.48
72288;SHT31;60221;45.696;16.076;2022-11-15T09:33:28;15.50;66.79
72288;SHT31;60221;45.696;16.076;2022-11-15T09:36:13;15.68;66.99
72288;SHT31;60221;45.696;16.076;2022-11-15T09:38:58;16.11;66.44
72288;SHT31;60221;45.696;16.076;2022-11-15T09:47:47;16.36;64.90
72288;SHT31;60221;45.696;16.076;2022-11-15T09:51:04;16.34;64.65
72288;SHT31;60221;45.696;16.076;2022-11-15T09:52:48;16.29;64.50
72288;SHT31;60221;45.696;16.076;2022-11-15T09:55:15;16.15;64.13
72288;SHT31;60221;45.696;16.076;2022-11-15T09:58:15;16.12;64.65
72288;SHT31;60221;45.696;16.076;2022-11-15T10:00:44;16.11;65.17
72288;SHT31;60221;45.696;16.076;2022-11-15T10:05:51;16.13;64.37
72288;SHT31;60221;45.696;16.076;2022-11-15T10:11:27;16.29;64.23
72288;SHT31;60221;45.696;16.076;2022-11-15T10:13:54;16.32;63.88
72288;SHT31;60221;45.696;16.076;2022-11-15T10:22:44;16.37;63.13
72288;SHT31;60221;45.696;16.076;2022-11-15T10:25:26;16.40;63.12
72288;SHT31;60221;45.696;16.076;2022-11-15T10:28:29;16.40;62.80
72288;SHT31;60221;45.696;16.076;2022-11-15T10:30:59;16.44;62.82
72288;SHT31;60221;45.696;16.076;2022-11-15T10:33:40;16.50;62.85
72288;SHT31;60221;45.696;16.076;2022-11-15T10:36:16;16.54;63.22
72288;SHT31;60221;45.696;16.076;2022-11-15T10:38:54;16.60;62.67
72288;SHT31;60221;45.696;16.076;2022-11-15T10:41:31;16.68;63.07
72288;SHT31;60221;45.696;16.076;2022-11-15T10:44:17;16.79;62.76
72288;SHT31;60221;45.696;16.076;2022-11-15T10:46:43;16.87;62.93
72288;SHT31;60221;45.696;16.076;2022-11-15T10:49:23;16.84;62.96
72288;SHT31;60221;45.696;16.076;2022-11-15T10:51:55;16.88;62.46
72288;SHT31;60221;45.696;16.076;2022-11-15T10:54:36;16.91;61.53
72288;SHT31;60221;45.696;16.076;2022-11-15T10:57:21;16.88;62.37
72288;SHT31;60221;45.696;16.076;2022-11-15T10:59:53;16.87;63.06
72288;SHT31;60221;45.696;16.076;2022-11-15T11:02:38;16.87;62.79
72288;SHT31;60221;45.696;16.076;2022-11-15T11:08:00;17.01;62.81
72288;SHT31;60221;45.696;16.076;2022-11-15T11:10:28;17.06;62.40
72288;SHT31;60221;45.696;16.076;2022-11-15T11:12:54;17.06;62.00
72288;SHT31;60221;45.696;16.076;2022-11-15T11:15:24;17.09;61.29
72288;SHT31;60221;45.696;16.076;2022-11-15T11:20:45;17.21;61.42
72288;SHT31;60221;45.696;16.076;2022-11-15T11:23:25;17.29;61.26
72288;SHT31;60221;45.696;16.076;2022-11-15T11:26:11;17.36;60.30
72288;SHT31;60221;45.696;16.076;2022-11-15T11:34:50;17.52;60.34
72288;SHT31;60221;45.696;16.076;2022-11-15T11:37:52;17.62;60.05
72288;SHT31;60221;45.696;16.076;2022-11-15T11:40:39;17.44;58.02
72288;SHT31;60221;45.696;16.076;2022-11-15T11:43:39;17.05;58.82
72288;SHT31;60221;45.696;16.076;2022-11-15T11:49:15;16.49;60.25
72288;SHT31;60221;45.696;16.076;2022-11-15T11:51:49;16.24;61.05
72288;SHT31;60221;45.696;16.076;2022-11-15T11:59:50;15.69;63.44
72288;SHT31;60221;45.696;16.076;2022-11-15T12:02:37;17.02;67.86
72288;SHT31;60221;45.696;16.076;2022-11-15T12:07:40;17.30;62.54
72288;SHT31;60221;45.696;16.076;2022-11-15T12:10:30;17.14;62.05
72288;SHT31;60221;45.696;16.076;2022-11-15T12:16:16;17.27;62.31
72288;SHT31;60221;45.696;16.076;2022-11-15T12:18:16;17.32;61.37
72288;SHT31;60221;45.696;16.076;2022-11-15T12:21:03;17.25;60.83
72288;SHT31;60221;45.696;16.076;2022-11-15T12:23:37;17.15;61.20
72288;SHT31;60221;45.696;16.076;2022-11-15T12:26:11;17.11;60.95
72288;SHT31;60221;45.696;16.076;2022-11-15T12:28:58;17.15;60.73
72288;SHT31;60221;45.696;16.076;2022-11-15T12:31:38;17.18;61.01
72288;SHT31;60221;45.696;16.076;2022-11-15T12:36:56;17.25;60.85
72288;SHT31;60221;45.696;16.076;2022-11-15T12:44:59;17.18;60.93
72288;SHT31;60221;45.696;16.076;2022-11-15T12:47:26;17.23;61.13
72288;SHT31;60221;45.696;16.076;2022-11-15T12:49:54;17.33;61.61
72288;SHT31;60221;45.696;16.076;2022-11-15T12:52:20;17.40;61.89
72288;SHT31;60221;45.696;16.076;2022-11-15T12:54:56;17.43;61.25
72288;SHT31;60221;45.696;16.076;2022-11-15T12:57:30;17.40;60.85
72288;SHT31;60221;45.696;16.076;2022-11-15T13:02:43;17.29;60.81
72288;SHT31;60221;45.696;16.076;2022-11-15T13:07:57;17.49;61.12
72288;SHT31;60221;45.696;16.076;2022-11-15T13:10:32;17.40;60.46
72288;SHT31;60221;45.696;16.076;2022-11-15T13:13:08;17.32;60.60
72288;SHT31;60221;45.696;16.076;2022-11-15T13:18:39;17.33;61.21
72288;SHT31;60221;45.696;16.076;2022-11-15T13:21:23;17.33;61.34
72288;SHT31;60221;45.696;16.076;2022-11-15T13:24:16;17.30;61.45
72288;SHT31;60221;45.696;16.076;2022-11-15T13:26:43;17.27;61.23
72288;SHT31;60221;45.696;16.076;2022-11-15T13:29:18;17.26;61.11
72288;SHT31;60221;45.696;16.076;2022-11-15T13:31:46;17.19;61.13
72288;SHT31;60221;45.696;16.076;2022-11-15T13:34:29;17.21;61.37
72288;SHT31;60221;45.696;16.076;2022-11-15T13:36:59;17.14;61.53
72288;SHT31;60221;45.696;16.076;2022-11-15T13:39:34;17.09;61.64
72288;SHT31;60221;45.696;16.076;2022-11-15T13:42:02;17.05;61.63
72288;SHT31;60221;45.696;16.076;2022-11-15T13:44:32;17.02;61.81
72288;SHT31;60221;45.696;16.076;2022-11-15T13:47:14;16.96;62.09
72288;SHT31;60221;45.696;16.076;2022-11-15T13:49:41;16.95;62.26
72288;SHT31;60221;45.696;16.076;2022-11-15T13:52:12;16.87;62.19
72288;SHT31;60221;45.696;16.076;2022-11-15T13:54:57;16.85;62.26
72288;SHT31;60221;45.696;16.076;2022-11-15T13:57:29;16.79;62.33
72288;SHT31;60221;45.696;16.076;2022-11-15T14:00:02;16.71;62.29
72288;SHT31;60221;45.696;16.076;2022-11-15T14:02:34;16.66;62.58
72288;SHT31;60221;45.696;16.076;2022-11-15T14:05:23;16.59;62.73
72288;SHT31;60221;45.696;16.076;2022-11-15T14:08:12;16.46;62.58
72288;SHT31;60221;45.696;16.076;2022-11-15T14:10:36;16.40;63.24
72288;SHT31;60221;45.696;16.076;2022-11-15T14:13:10;16.49;63.73
72288;SHT31;60221;45.696;16.076;2022-11-15T14:15:37;16.56;63.82
72288;SHT31;60221;45.696;16.076;2022-11-15T14:18:05;16.66;63.76
72288;SHT31;60221;45.696;16.076;2022-11-15T14:20:38;16.66;63.35
72288;SHT31;60221;45.696;16.076;2022-11-15T14:23:26;16.59;62.99
72288;SHT31;60221;45.696;16.076;2022-11-15T14:25:58;16.57;63.53
72288;SHT31;60221;45.696;16.076;2022-11-15T14:28:32;16.40;62.83
72288;SHT31;60221;45.696;16.076;2022-11-15T14:31:10;16.26;63.25
72288;SHT31;60221;45.696;16.076;2022-11-15T14:33:37;16.02;63.20
72288;SHT31;60221;45.696;16.076;2022-11-15T14:36:19;15.86;63.75
72288;SHT31;60221;45.696;16.076;2022-11-15T14:38:47;15.72;64.35
72288;SHT31;60221;45.696;16.076;2022-11-15T14:41:23;15.54;64.60
72288;SHT31;60221;45.696;16.076;2022-11-15T14:43:52;15.41;65.10
72288;SHT31;60221;45.696;16.076;2022-11-15T14:46:18;15.30;65.58
72288;SHT31;60221;45.696;16.076;2022-11-15T14:48:45;15.27;66.67
72288;SHT31;60221;45.696;16.076;2022-11-15T14:51:17;15.33;67.33
72288;SHT31;60221;45.696;16.076;2022-11-15T14:53:45;15.43;67.84
72288;SHT31;60221;45.696;16.076;2022-11-15T14:56:13;15.56;67.65
72288;SHT31;60221;45.696;16.076;2022-11-15T14:58:40;15.58;67.46
72288;SHT31;60221;45.696;16.076;2022-11-15T15:01:21;15.60;67.25
72288;SHT31;60221;45.696;16.076;2022-11-15T15:03:43;15.60;67.10
72288;SHT31;60221;45.696;16.076;2022-11-15T15:06:10;15.58;66.97
72288;SHT31;60221;45.696;16.076;2022-11-15T15:08:40;15.57;66.43
72288;SHT31;60221;45.696;16.076;2022-11-15T15:11:16;15.36;66.26
72288;SHT31;60221;45.696;16.076;2022-11-15T15:13:42;15.22;66.46
72288;SHT31;60221;45.696;16.076;2022-11-15T15:16:09;14.99;66.20
72288;SHT31;60221;45.696;16.076;2022-11-15T15:18:35;14.79;66.64
72288;SHT31;60221;45.696;16.076;2022-11-15T15:21:02;14.71;67.14
72288;SHT31;60221;45.696;16.076;2022-11-15T15:23:30;14.55;67.33
72288;SHT31;60221;45.696;16.076;2022-11-15T15:25:56;14.43;67.63
72288;SHT31;60221;45.696;16.076;2022-11-15T15:28:22;14.28;67.90
72288;SHT31;60221;45.696;16.076;2022-11-15T15:30:48;14.23;68.66
72288;SHT31;60221;45.696;16.076;2022-11-15T15:33:16;14.05;68.65
72288;SHT31;60221;45.696;16.076;2022-11-15T15:35:42;13.95;69.19
72288;SHT31;60221;45.696;16.076;2022-11-15T15:38:12;13.80;69.36
72288;SHT31;60221;45.696;16.076;2022-11-15T15:40:39;13.83;70.79
72288;SHT31;60221;45.696;16.076;2022-11-15T15:43:05;14.03;71.53
72288;SHT31;60221;45.696;16.076;2022-11-15T15:45:33;14.19;71.51
72288;SHT31;60221;45.696;16.076;2022-11-15T15:47:59;14.19;70.06
72288;SHT31;60221;45.696;16.076;2022-11-15T15:50:34;13.95;69.24
72288;SHT31;60221;45.696;16.076;2022-11-15T15:53:03;13.70;69.34
72288;SHT31;60221;45.696;16.076;2022-11-15T15:55:30;13.59;70.15
72288;SHT31;60221;45.696;16.076;2022-11-15T15:57:57;13.58;71.25
72288;SHT31;60221;45.696;16.076;2022-11-15T16:00:25;13.92;72.47
72288;SHT31;60221;45.696;16.076;2022-11-15T16:02:52;14.23;72.31
72288;SHT31;60221;45.696;16.076;2022-11-15T16:05:19;14.40;71.89
72288;SHT31;60221;45.696;16.076;2022-11-15T16:07:46;14.55;71.29
72288;SHT31;60221;45.696;16.076;2022-11-15T16:10:27;14.54;69.93
72288;SHT31;60221;45.696;16.076;2022-11-15T16:12:52;14.16;68.89
72288;SHT31;60221;45.696;16.076;2022-11-15T16:15:21;13.82;68.56
72288;SHT31;60221;45.696;16.076;2022-11-15T16:17:57;13.57;69.58
72288;SHT31;60221;45.696;16.076;2022-11-15T16:20:39;13.59;70.84
72288;SHT31;60221;45.696;16.076;2022-11-15T16:23:14;13.64;71.40
72288;SHT31;60221;45.696;16.076;2022-11-15T16:25:47;13.68;71.48
72288;SHT31;60221;45.696;16.076;2022-11-15T16:28:22;13.69;71.67
72288;SHT31;60221;45.696;16.076;2022-11-15T16:30:58;13.66;71.77
72288;SHT31;60221;45.696;16.076;2022-11-15T16:33:17;13.69;71.75
72288;SHT31;60221;45.696;16.076;2022-11-15T16:35:45;13.68;71.71
72288;SHT31;60221;45.696;16.076;2022-11-15T16:38:15;13.70;71.65
72288;SHT31;60221;45.696;16.076;2022-11-15T16:40:41;13.70;71.60
72288;SHT31;60221;45.696;16.076;2022-11-15T16:43:08;13.73;71.66
72288;SHT31;60221;45.696;16.076;2022-11-15T16:45:35;13.73;71.67
72288;SHT31;60221;45.696;16.076;2022-11-15T16:48:02;13.70;71.69
72288;SHT31;60221;45.696;16.076;2022-11-15T16:50:32;13.73;71.64
72288;SHT31;60221;45.696;16.076;2022-11-15T16:53:00;13.69;71.64
72288;SHT31;60221;45.696;16.076;2022-11-15T16:55:28;13.70;71.50
72288;SHT31;60221;45.696;16.076;2022-11-15T16:57:56;13.69;71.61
72288;SHT31;60221;45.696;16.076;2022-11-15T17:00:26;13.70;71.71
72288;SHT31;60221;45.696;16.076;2022-11-15T17:02:53;13.72;71.69
72288;SHT31;60221;45.696;16.076;2022-11-15T17:05:23;13.70;71.70
72288;SHT31;60221;45.696;16.076;2022-11-15T17:07:51;13.68;71.62
72288;SHT31;60221;45.696;16.076;2022-11-15T17:10:21;13.65;71.55
72288;SHT31;60221;45.696;16.076;2022-11-15T17:12:49;13.65;71.71
72288;SHT31;60221;45.696;16.076;2022-11-15T17:15:16;13.62;71.88
72288;SHT31;60221;45.696;16.076;2022-11-15T17:17:44;13.59;72.03
72288;SHT31;60221;45.696;16.076;2022-11-15T17:20:16;13.61;72.20
72288;SHT31;60221;45.696;16.076;2022-11-15T17:22:43;13.62;72.27
72288;SHT31;60221;45.696;16.076;2022-11-15T17:25:10;13.62;72.16
72288;SHT31;60221;45.696;16.076;2022-11-15T17:27:36;13.62;72.09
72288;SHT31;60221;45.696;16.076;2022-11-15T17:30:05;13.62;72.12
72288;SHT31;60221;45.696;16.076;2022-11-15T17:32:37;13.62;71.91
72288;SHT31;60221;45.696;16.076;2022-11-15T17:35:05;13.59;71.70
72288;SHT31;60221;45.696;16.076;2022-11-15T17:37:35;13.58;71.51
72288;SHT31;60221;45.696;16.076;2022-11-15T17:40:03;13.57;71.30
72288;SHT31;60221;45.696;16.076;2022-11-15T17:42:29;13.57;71.18
72288;SHT31;60221;45.696;16.076;2022-11-15T17:44:56;13.52;70.91
72288;SHT31;60221;45.696;16.076;2022-11-15T17:47:22;13.50;70.71
72288;SHT31;60221;45.696;16.076;2022-11-15T17:49:48;13.50;70.57
72288;SHT31;60221;45.696;16.076;2022-11-15T17:52:14;13.44;70.50
72288;SHT31;60221;45.696;16.076;2022-11-15T17:54:40;13.41;70.47
72288;SHT31;60221;45.696;16.076;2022-11-15T17:57:06;13.35;70.45
72288;SHT31;60221;45.696;16.076;2022-11-15T17:59:32;13.35;70.39
72288;SHT31;60221;45.696;16.076;2022-11-15T18:02:00;13.27;70.36
72288;SHT31;60221;45.696;16.076;2022-11-15T18:04:26;13.23;70.34
72288;SHT31;60221;45.696;16.076;2022-11-15T18:06:54;13.18;70.22
72288;SHT31;60221;45.696;16.076;2022-11-15T18:09:21;13.17;70.03